sensor_id;sensor_type;location;lat;lon;timestamp;temperature;humidity
16627;DHT22;8427;52.204;7.202;2022-07-29T00:01:19;16.40;99.90
16627;DHT22;8427;52.204;7.202;2022-07-29T00:03:48;16.40;99.90
16627;DHT22;8427;52.204;7.202;2022-07-29T00:06:16;16.30;99.90
16627;DHT22;8427;52.204;7.202;2022-07-29T00:08:44;16.30;99.90
16627;DHT22;8427;52.204;7.202;2022-07-29T00:11:13;16.30;99.90
16627;DHT22;8427;52.204;7.202;2022-07-29T00:13:41;16.30;99.90
16627;DHT22;8427;52.204;7.202;2022-07-29T00:16:16;16.20;99.90
16627;DHT22;8427;52.204;7.202;2022-07-29T00:18:46;16.10;99.90
16627;DHT22;8427;52.204;7.202;2022-07-29T00:21:14;16.20;99.90
16627;DHT22;8427;52.204;7.202;2022-07-29T00:23:42;16.10;99.90
16627;DHT22;8427;52.204;7.202;2022-07-29T00:26:11;16.10;99.90
16627;DHT22;8427;52.204;7.202;2022-07-29T00:28:39;16.10;99.90
16627;DHT22;8427;52.204;7.202;2022-07-29T00:31:07;16.10;99.90
16627;DHT22;8427;52.204;7.202;2022-07-29T00:33:35;16.00;99.90
16627;DHT22;8427;52.204;7.202;2022-07-29T00:36:05;16.00;99.90
16627;DHT22;8427;52.204;7.202;2022-07-29T00:38:33;16.00;99.90
16627;DHT22;8427;52.204;7.202;2022-07-29T00:41:01;16.00;99.90
16627;DHT22;8427;52.204;7.202;2022-07-29T00:43:29;16.00;99.90
16627;DHT22;8427;52.204;7.202;2022-07-29T00:45:57;15.90;99.90
16627;DHT22;8427;52.204;7.202;2022-07-29T00:48:26;15.90;99.90
16627;DHT22;8427;52.204;7.202;2022-07-29T00:50:55;15.90;99.90
16627;DHT22;8427;52.204;7.202;2022-07-29T00:53:25;15.90;99.90
16627;DHT22;8427;52.204;7.202;2022-07-29T00:55:54;15.90;99.90
16627;DHT22;8427;52.204;7.202;2022-07-29T00:58:23;15.80;99.90
16627;DHT22;8427;52.204;7.202;2022-07-29T01:00:51;15.80;99.90
16627;DHT22;8427;52.204;7.202;2022-07-29T01:03:20;15.80;99.90
16627;DHT22;8427;52.204;7.202;2022-07-29T01:05:49;15.70;99.90
16627;DHT22;8427;52.204;7.202;2022-07-29T01:08:18;15.70;99.90
16627;DHT22;8427;52.204;7.202;2022-07-29T01:10:49;15.70;99.90
16627;DHT22;8427;52.204;7.202;2022-07-29T01:13:20;15.70;99.90
16627;DHT22;8427;52.204;7.202;2022-07-29T01:15:54;15.70;99.90
16627;DHT22;8427;52.204;7.202;2022-07-29T01:18:30;15.70;99.90
16627;DHT22;8427;52.204;7.202;2022-07-29T01:21:27;15.60;99.90
16627;DHT22;8427;52.204;7.202;2022-07-29T01:24:14;15.60;99.90
16627;DHT22;8427;52.204;7.202;2022-07-29T01:26:54;15.60;99.90
16627;DHT22;8427;52.204;7.202;2022-07-29T01:29:29;15.50;99.90
16627;DHT22;8427;52.204;7.202;2022-07-29T01:32:08;15.50;99.90
16627;DHT22;8427;52.204;7.202;2022-07-29T01:34:58;15.50;99.90
16627;DHT22;8427;52.204;7.202;2022-07-29T01:37:32;15.50;99.90
16627;DHT22;8427;52.204;7.202;2022-07-29T01:40:05;15.50;99.90
16627;DHT22;8427;52.204;7.202;2022-07-29T01:42:41;15.50;99.90
16627;DHT22;8427;52.204;7.202;2022-07-29T01:45:15;15.50;99.90
16627;DHT22;8427;52.204;7.202;2022-07-29T01:47:51;15.40;99.90
16627;DHT22;8427;52.204;7.202;2022-07-29T01:50:26;15.40;99.90
16627;DHT22;8427;52.204;7.202;2022-07-29T01:52:58;15.40;99.90
16627;DHT22;8427;52.204;7.202;2022-07-29T01:55:29;15.40;99.90
16627;DHT22;8427;52.204;7.202;2022-07-29T01:58:00;15.40;99.90
16627;DHT22;8427;52.204;7.202;2022-07-29T02:00:32;15.30;99.90
16627;DHT22;8427;52.204;7.202;2022-07-29T02:03:05;15.40;99.90
16627;DHT22;8427;52.204;7.202;2022-07-29T02:05:36;15.30;99.90
16627;DHT22;8427;52.204;7.202;2022-07-29T02:08:06;15.30;99.90
16627;DHT22;8427;52.204;7.202;2022-07-29T02:10:36;15.20;99.90
16627;DHT22;8427;52.204;7.202;2022-07-29T02:13:07;15.20;99.90
16627;DHT22;8427;52.204;7.202;2022-07-29T02:15:37;15.20;99.90
16627;DHT22;8427;52.204;7.202;2022-07-29T02:18:09;15.30;99.90
16627;DHT22;8427;52.204;7.202;2022-07-29T02:20:39;15.20;99.90
16627;DHT22;8427;52.204;7.202;2022-07-29T02:23:10;15.20;99.90
16627;DHT22;8427;52.204;7.202;2022-07-29T02:25:41;15.10;99.90
16627;DHT22;8427;52.204;7.202;2022-07-29T02:28:12;15.10;99.90
16627;DHT22;8427;52.204;7.202;2022-07-29T02:30:43;15.10;99.90
16627;DHT22;8427;52.204;7.202;2022-07-29T02:33:14;15.10;99.90
16627;DHT22;8427;52.204;7.202;2022-07-29T02:35:46;15.10;99.90
16627;DHT22;8427;52.204;7.202;2022-07-29T02:38:16;15.10;99.90
16627;DHT22;8427;52.204;7.202;2022-07-29T02:41:05;15.00;99.90
16627;DHT22;8427;52.204;7.202;2022-07-29T02:43:36;15.00;99.90
16627;DHT22;8427;52.204;7.202;2022-07-29T02:46:11;15.00;99.90
16627;DHT22;8427;52.204;7.202;2022-07-29T02:48:58;15.00;99.90
16627;DHT22;8427;52.204;7.202;2022-07-29T02:51:40;14.90;99.90
16627;DHT22;8427;52.204;7.202;2022-07-29T02:54:14;14.90;99.90
16627;DHT22;8427;52.204;7.202;2022-07-29T02:56:46;14.90;99.90
16627;DHT22;8427;52.204;7.202;2022-07-29T02:59:18;14.80;99.90
16627;DHT22;8427;52.204;7.202;2022-07-29T03:01:49;14.80;99.90
16627;DHT22;8427;52.204;7.202;2022-07-29T03:04:19;14.80;99.90
16627;DHT22;8427;52.204;7.202;2022-07-29T03:06:49;14.70;99.90
16627;DHT22;8427;52.204;7.202;2022-07-29T03:09:19;14.70;99.90
16627;DHT22;8427;52.204;7.202;2022-07-29T03:11:47;14.60;99.90
16627;DHT22;8427;52.204;7.202;2022-07-29T03:14:17;14.60;99.90
16627;DHT22;8427;52.204;7.202;2022-07-29T03:16:49;14.50;99.90
16627;DHT22;8427;52.204;7.202;2022-07-29T03:19:18;14.40;99.90
16627;DHT22;8427;52.204;7.202;2022-07-29T03:21:47;14.40;99.90
16627;DHT22;8427;52.204;7.202;2022-07-29T03:24:26;14.40;99.90
16627;DHT22;8427;52.204;7.202;2022-07-29T03:26:55;14.40;99.90
16627;DHT22;8427;52.204;7.202;2022-07-29T03:29:23;14.40;99.90
16627;DHT22;8427;52.204;7.202;2022-07-29T03:32:02;14.40;99.90
16627;DHT22;8427;52.204;7.202;2022-07-29T03:34:34;14.30;99.90
16627;DHT22;8427;52.204;7.202;2022-07-29T03:37:03;14.40;99.90
16627;DHT22;8427;52.204;7.202;2022-07-29T03:39:36;14.40;99.90
16627;DHT22;8427;52.204;7.202;2022-07-29T03:42:08;14.40;99.90
16627;DHT22;8427;52.204;7.202;2022-07-29T03:44:39;14.30;99.90
16627;DHT22;8427;52.204;7.202;2022-07-29T03:47:11;14.40;99.90
16627;DHT22;8427;52.204;7.202;2022-07-29T03:49:41;14.30;99.90
16627;DHT22;8427;52.204;7.202;2022-07-29T03:52:10;14.40;99.90
16627;DHT22;8427;52.204;7.202;2022-07-29T03:54:38;14.40;99.90
16627;DHT22;8427;52.204;7.202;2022-07-29T03:57:07;14.40;99.90
16627;DHT22;8427;52.204;7.202;2022-07-29T03:59:38;14.40;99.90
16627;DHT22;8427;52.204;7.202;2022-07-29T04:02:10;14.30;99.90
16627;DHT22;8427;52.204;7.202;2022-07-29T04:04:41;14.40;99.90
16627;DHT22;8427;52.204;7.202;2022-07-29T04:07:12;14.40;99.90
16627;DHT22;8427;52.204;7.202;2022-07-29T04:09:41;14.30;99.90
16627;DHT22;8427;52.204;7.202;2022-07-29T04:12:10;14.30;99.90
16627;DHT22;8427;52.204;7.202;2022-07-29T04:14:38;14.30;99.90
16627;DHT22;8427;52.204;7.202;2022-07-29T04:17:06;14.30;99.90
16627;DHT22;8427;52.204;7.202;2022-07-29T04:19:36;14.30;99.90
16627;DHT22;8427;52.204;7.202;2022-07-29T04:22:04;14.20;99.90
16627;DHT22;8427;52.204;7.202;2022-07-29T04:24:33;14.20;99.90
16627;DHT22;8427;52.204;7.202;2022-07-29T04:27:01;14.30;99.90
16627;DHT22;8427;52.204;7.202;2022-07-29T04:29:29;14.30;99.90
16627;DHT22;8427;52.204;7.202;2022-07-29T04:31:57;14.30;99.90
16627;DHT22;8427;52.204;7.202;2022-07-29T04:34:25;14.40;99.90
16627;DHT22;8427;52.204;7.202;2022-07-29T04:36:55;14.50;99.90
16627;DHT22;8427;52.204;7.202;2022-07-29T04:39:24;14.60;99.90
16627;DHT22;8427;52.204;7.202;2022-07-29T04:41:56;14.80;99.90
16627;DHT22;8427;52.204;7.202;2022-07-29T04:44:25;14.90;99.90
16627;DHT22;8427;52.204;7.202;2022-07-29T04:46:55;15.00;99.90
16627;DHT22;8427;52.204;7.202;2022-07-29T04:49:24;15.10;99.90
16627;DHT22;8427;52.204;7.202;2022-07-29T04:51:53;15.10;99.90
16627;DHT22;8427;52.204;7.202;2022-07-29T04:54:22;15.20;99.90
16627;DHT22;8427;52.204;7.202;2022-07-29T04:56:51;15.40;99.90
16627;DHT22;8427;52.204;7.202;2022-07-29T04:59:19;15.40;99.90
16627;DHT22;8427;52.204;7.202;2022-07-29T05:01:47;15.30;99.90
16627;DHT22;8427;52.204;7.202;2022-07-29T05:04:16;15.40;99.90
16627;DHT22;8427;52.204;7.202;2022-07-29T05:06:45;15.40;99.90
16627;DHT22;8427;52.204;7.202;2022-07-29T05:09:13;15.50;99.90
16627;DHT22;8427;52.204;7.202;2022-07-29T05:11:43;15.50;99.90
16627;DHT22;8427;52.204;7.202;2022-07-29T05:14:11;15.60;99.90
16627;DHT22;8427;52.204;7.202;2022-07-29T05:16:40;15.50;99.90
16627;DHT22;8427;52.204;7.202;2022-07-29T05:19:08;15.50;99.90
16627;DHT22;8427;52.204;7.202;2022-07-29T05:21:40;15.50;99.90
16627;DHT22;8427;52.204;7.202;2022-07-29T05:24:09;15.50;99.90
16627;DHT22;8427;52.204;7.202;2022-07-29T05:26:37;15.50;99.90
16627;DHT22;8427;52.204;7.202;2022-07-29T05:29:07;15.60;99.90
16627;DHT22;8427;52.204;7.202;2022-07-29T05:31:55;15.70;99.90
16627;DHT22;8427;52.204;7.202;2022-07-29T05:34:23;15.70;99.90
16627;DHT22;8427;52.204;7.202;2022-07-29T05:36:52;15.70;99.90
16627;DHT22;8427;52.204;7.202;2022-07-29T05:39:20;15.80;99.90
16627;DHT22;8427;52.204;7.202;2022-07-29T05:42:08;15.80;99.90
16627;DHT22;8427;52.204;7.202;2022-07-29T05:44:39;15.90;99.90
16627;DHT22;8427;52.204;7.202;2022-07-29T05:47:07;15.80;99.90
16627;DHT22;8427;52.204;7.202;2022-07-29T05:49:35;15.90;99.90
16627;DHT22;8427;52.204;7.202;2022-07-29T05:52:04;16.00;99.90
16627;DHT22;8427;52.204;7.202;2022-07-29T05:54:32;16.10;99.90
16627;DHT22;8427;52.204;7.202;2022-07-29T05:57:00;16.10;99.90
16627;DHT22;8427;52.204;7.202;2022-07-29T05:59:29;16.10;99.90
16627;DHT22;8427;52.204;7.202;2022-07-29T06:01:58;16.10;99.90
16627;DHT22;8427;52.204;7.202;2022-07-29T06:04:26;16.20;99.90
16627;DHT22;8427;52.204;7.202;2022-07-29T06:06:55;16.20;99.90
16627;DHT22;8427;52.204;7.202;2022-07-29T06:09:23;16.10;99.90
16627;DHT22;8427;52.204;7.202;2022-07-29T06:11:51;16.10;99.90
16627;DHT22;8427;52.204;7.202;2022-07-29T06:14:19;16.10;99.90
16627;DHT22;8427;52.204;7.202;2022-07-29T06:16:48;15.90;99.90
16627;DHT22;8427;52.204;7.202;2022-07-29T06:19:17;15.90;99.90
16627;DHT22;8427;52.204;7.202;2022-07-29T06:21:47;16.00;99.90
16627;DHT22;8427;52.204;7.202;2022-07-29T06:24:15;16.10;99.90
16627;DHT22;8427;52.204;7.202;2022-07-29T06:26:45;16.30;99.90
16627;DHT22;8427;52.204;7.202;2022-07-29T06:29:13;16.40;99.90
16627;DHT22;8427;52.204;7.202;2022-07-29T06:31:41;16.50;99.90
16627;DHT22;8427;52.204;7.202;2022-07-29T06:34:09;16.50;99.90
16627;DHT22;8427;52.204;7.202;2022-07-29T06:36:40;16.70;99.90
16627;DHT22;8427;52.204;7.202;2022-07-29T06:39:08;16.70;99.90
16627;DHT22;8427;52.204;7.202;2022-07-29T06:41:47;16.80;99.90
16627;DHT22;8427;52.204;7.202;2022-07-29T06:44:16;16.90;99.90
16627;DHT22;8427;52.204;7.202;2022-07-29T06:46:44;16.80;99.90
16627;DHT22;8427;52.204;7.202;2022-07-29T06:49:15;16.80;99.90
16627;DHT22;8427;52.204;7.202;2022-07-29T06:51:45;16.80;99.90
16627;DHT22;8427;52.204;7.202;2022-07-29T06:54:13;16.80;99.90
16627;DHT22;8427;52.204;7.202;2022-07-29T06:56:42;16.70;99.90
16627;DHT22;8427;52.204;7.202;2022-07-29T06:59:11;16.70;99.90
16627;DHT22;8427;52.204;7.202;2022-07-29T07:01:42;16.70;99.90
16627;DHT22;8427;52.204;7.202;2022-07-29T07:04:11;16.60;99.90
16627;DHT22;8427;52.204;7.202;2022-07-29T07:06:40;16.60;99.90
16627;DHT22;8427;52.204;7.202;2022-07-29T07:09:10;16.50;99.90
16627;DHT22;8427;52.204;7.202;2022-07-29T07:11:38;16.50;99.90
16627;DHT22;8427;52.204;7.202;2022-07-29T07:14:06;16.50;99.90
16627;DHT22;8427;52.204;7.202;2022-07-29T07:16:34;16.60;99.90
16627;DHT22;8427;52.204;7.202;2022-07-29T07:19:03;16.60;99.90
16627;DHT22;8427;52.204;7.202;2022-07-29T07:21:32;16.70;99.90
16627;DHT22;8427;52.204;7.202;2022-07-29T07:24:02;16.70;99.90
16627;DHT22;8427;52.204;7.202;2022-07-29T07:26:31;16.80;99.90
16627;DHT22;8427;52.204;7.202;2022-07-29T07:28:59;16.80;99.90
16627;DHT22;8427;52.204;7.202;2022-07-29T07:31:28;16.80;99.90
16627;DHT22;8427;52.204;7.202;2022-07-29T07:33:56;16.90;99.90
16627;DHT22;8427;52.204;7.202;2022-07-29T07:36:24;17.00;99.90
16627;DHT22;8427;52.204;7.202;2022-07-29T07:38:53;17.00;99.90
16627;DHT22;8427;52.204;7.202;2022-07-29T07:41:21;17.10;99.90
16627;DHT22;8427;52.204;7.202;2022-07-29T07:43:51;17.10;99.90
16627;DHT22;8427;52.204;7.202;2022-07-29T07:46:19;17.20;99.90
16627;DHT22;8427;52.204;7.202;2022-07-29T07:48:48;17.20;99.90
16627;DHT22;8427;52.204;7.202;2022-07-29T07:51:16;17.20;99.90
16627;DHT22;8427;52.204;7.202;2022-07-29T07:53:44;17.20;99.90
16627;DHT22;8427;52.204;7.202;2022-07-29T07:56:16;17.20;99.90
16627;DHT22;8427;52.204;7.202;2022-07-29T07:58:44;17.20;99.90
16627;DHT22;8427;52.204;7.202;2022-07-29T08:01:14;17.30;99.90
16627;DHT22;8427;52.204;7.202;2022-07-29T08:03:45;17.20;99.90
16627;DHT22;8427;52.204;7.202;2022-07-29T08:06:14;17.20;99.90
16627;DHT22;8427;52.204;7.202;2022-07-29T08:08:42;17.20;99.90
16627;DHT22;8427;52.204;7.202;2022-07-29T08:11:10;17.20;99.90
16627;DHT22;8427;52.204;7.202;2022-07-29T08:13:38;17.20;99.90
16627;DHT22;8427;52.204;7.202;2022-07-29T08:16:07;17.20;99.90
16627;DHT22;8427;52.204;7.202;2022-07-29T08:18:45;17.20;99.90
16627;DHT22;8427;52.204;7.202;2022-07-29T08:21:14;17.20;99.90
16627;DHT22;8427;52.204;7.202;2022-07-29T08:23:43;17.30;99.90
16627;DHT22;8427;52.204;7.202;2022-07-29T08:26:27;17.40;99.90
16627;DHT22;8427;52.204;7.202;2022-07-29T08:28:55;17.60;99.90
16627;DHT22;8427;52.204;7.202;2022-07-29T08:31:23;17.70;99.90
16627;DHT22;8427;52.204;7.202;2022-07-29T08:33:53;17.80;99.90
16627;DHT22;8427;52.204;7.202;2022-07-29T08:36:24;17.70;99.90
16627;DHT22;8427;52.204;7.202;2022-07-29T08:38:52;17.90;99.90
16627;DHT22;8427;52.204;7.202;2022-07-29T08:41:21;17.80;99.90
16627;DHT22;8427;52.204;7.202;2022-07-29T08:43:49;17.90;99.90
16627;DHT22;8427;52.204;7.202;2022-07-29T08:46:19;18.10;99.90
16627;DHT22;8427;52.204;7.202;2022-07-29T08:48:48;18.00;99.90
16627;DHT22;8427;52.204;7.202;2022-07-29T08:51:19;18.00;99.90
16627;DHT22;8427;52.204;7.202;2022-07-29T08:53:49;17.80;99.90
16627;DHT22;8427;52.204;7.202;2022-07-29T08:56:18;17.80;99.90
16627;DHT22;8427;52.204;7.202;2022-07-29T08:58:47;17.70;99.90
16627;DHT22;8427;52.204;7.202;2022-07-29T09:01:21;17.60;99.90
16627;DHT22;8427;52.204;7.202;2022-07-29T09:04:04;17.60;99.90
16627;DHT22;8427;52.204;7.202;2022-07-29T09:06:37;17.60;99.90
16627;DHT22;8427;52.204;7.202;2022-07-29T09:09:07;17.70;99.90
16627;DHT22;8427;52.204;7.202;2022-07-29T09:11:36;17.70;99.90
16627;DHT22;8427;52.204;7.202;2022-07-29T09:14:04;17.70;99.90
16627;DHT22;8427;52.204;7.202;2022-07-29T09:16:50;17.80;99.90
16627;DHT22;8427;52.204;7.202;2022-07-29T09:19:22;17.80;99.90
16627;DHT22;8427;52.204;7.202;2022-07-29T09:21:52;17.70;99.90
16627;DHT22;8427;52.204;7.202;2022-07-29T09:24:40;17.70;99.90
16627;DHT22;8427;52.204;7.202;2022-07-29T09:27:19;17.60;99.90
16627;DHT22;8427;52.204;7.202;2022-07-29T09:29:56;17.50;99.90
16627;DHT22;8427;52.204;7.202;2022-07-29T09:32:25;17.40;99.90
16627;DHT22;8427;52.204;7.202;2022-07-29T09:35:13;17.40;99.90
16627;DHT22;8427;52.204;7.202;2022-07-29T09:37:43;17.40;99.90
16627;DHT22;8427;52.204;7.202;2022-07-29T09:40:13;17.50;99.90
16627;DHT22;8427;52.204;7.202;2022-07-29T09:42:43;17.50;99.90
16627;DHT22;8427;52.204;7.202;2022-07-29T09:45:11;17.60;99.90
16627;DHT22;8427;52.204;7.202;2022-07-29T09:47:45;17.60;99.90
16627;DHT22;8427;52.204;7.202;2022-07-29T09:50:15;17.70;99.90
16627;DHT22;8427;52.204;7.202;2022-07-29T09:52:49;17.70;99.90
16627;DHT22;8427;52.204;7.202;2022-07-29T09:55:18;17.70;99.90
16627;DHT22;8427;52.204;7.202;2022-07-29T09:57:47;17.80;99.90
16627;DHT22;8427;52.204;7.202;2022-07-29T10:00:16;17.70;99.90
16627;DHT22;8427;52.204;7.202;2022-07-29T10:02:46;17.60;99.90
16627;DHT22;8427;52.204;7.202;2022-07-29T10:05:19;17.70;99.90
16627;DHT22;8427;52.204;7.202;2022-07-29T10:07:51;17.60;99.90
16627;DHT22;8427;52.204;7.202;2022-07-29T10:10:24;17.50;99.90
16627;DHT22;8427;52.204;7.202;2022-07-29T10:12:54;17.50;99.90
16627;DHT22;8427;52.204;7.202;2022-07-29T10:15:28;17.40;99.90
16627;DHT22;8427;52.204;7.202;2022-07-29T10:17:57;17.20;99.90
16627;DHT22;8427;52.204;7.202;2022-07-29T10:20:27;17.10;99.90
16627;DHT22;8427;52.204;7.202;2022-07-29T10:22:56;17.00;99.90
16627;DHT22;8427;52.204;7.202;2022-07-29T10:25:25;16.80;99.90
16627;DHT22;8427;52.204;7.202;2022-07-29T10:27:54;16.50;99.90
16627;DHT22;8427;52.204;7.202;2022-07-29T10:30:23;16.30;99.90
16627;DHT22;8427;52.204;7.202;2022-07-29T10:33:04;16.20;99.90
16627;DHT22;8427;52.204;7.202;2022-07-29T10:35:48;16.10;99.90
16627;DHT22;8427;52.204;7.202;2022-07-29T10:38:44;16.00;99.90
16627;DHT22;8427;52.204;7.202;2022-07-29T10:41:53;15.90;99.90
16627;DHT22;8427;52.204;7.202;2022-07-29T10:44:25;15.80;99.90
16627;DHT22;8427;52.204;7.202;2022-07-29T10:46:54;15.90;99.90
16627;DHT22;8427;52.204;7.202;2022-07-29T10:49:25;15.80;99.90
16627;DHT22;8427;52.204;7.202;2022-07-29T10:52:01;15.80;99.90
16627;DHT22;8427;52.204;7.202;2022-07-29T10:54:49;15.90;99.90
16627;DHT22;8427;52.204;7.202;2022-07-29T10:57:22;15.80;99.90
16627;DHT22;8427;52.204;7.202;2022-07-29T11:00:32;15.80;99.90
16627;DHT22;8427;52.204;7.202;2022-07-29T11:03:01;15.80;99.90
16627;DHT22;8427;52.204;7.202;2022-07-29T11:05:53;15.70;99.90
16627;DHT22;8427;52.204;7.202;2022-07-29T11:08:24;15.70;99.90
16627;DHT22;8427;52.204;7.202;2022-07-29T11:14:04;15.60;99.90
16627;DHT22;8427;52.204;7.202;2022-07-29T11:17:02;15.50;99.90
16627;DHT22;8427;52.204;7.202;2022-07-29T11:19:32;15.60;99.90
16627;DHT22;8427;52.204;7.202;2022-07-29T11:22:01;15.60;99.90
16627;DHT22;8427;52.204;7.202;2022-07-29T11:24:31;15.60;99.90
16627;DHT22;8427;52.204;7.202;2022-07-29T11:27:14;15.60;99.90
16627;DHT22;8427;52.204;7.202;2022-07-29T11:29:53;15.70;99.90
16627;DHT22;8427;52.204;7.202;2022-07-29T11:32:23;15.70;99.90
16627;DHT22;8427;52.204;7.202;2022-07-29T11:35:20;15.70;99.90
16627;DHT22;8427;52.204;7.202;2022-07-29T11:38:23;15.70;99.90
16627;DHT22;8427;52.204;7.202;2022-07-29T11:41:24;15.80;99.90
16627;DHT22;8427;52.204;7.202;2022-07-29T11:43:54;15.80;99.90
16627;DHT22;8427;52.204;7.202;2022-07-29T11:46:46;15.90;99.90
16627;DHT22;8427;52.204;7.202;2022-07-29T11:49:19;15.90;99.90
16627;DHT22;8427;52.204;7.202;2022-07-29T11:51:59;16.00;99.90
16627;DHT22;8427;52.204;7.202;2022-07-29T11:54:31;16.10;99.90
16627;DHT22;8427;52.204;7.202;2022-07-29T11:57:20;16.10;99.90
16627;DHT22;8427;52.204;7.202;2022-07-29T12:00:03;16.10;99.90
16627;DHT22;8427;52.204;7.202;2022-07-29T12:02:42;16.20;99.90
16627;DHT22;8427;52.204;7.202;2022-07-29T12:05:14;16.30;99.90
16627;DHT22;8427;52.204;7.202;2022-07-29T12:08:11;16.30;99.90
16627;DHT22;8427;52.204;7.202;2022-07-29T12:10:41;16.40;99.90
16627;DHT22;8427;52.204;7.202;2022-07-29T12:13:10;16.50;99.90
16627;DHT22;8427;52.204;7.202;2022-07-29T12:15:39;16.50;99.90
16627;DHT22;8427;52.204;7.202;2022-07-29T12:18:19;16.60;99.90
16627;DHT22;8427;52.204;7.202;2022-07-29T12:20:56;16.60;99.90
16627;DHT22;8427;52.204;7.202;2022-07-29T12:23:29;16.60;99.90
16627;DHT22;8427;52.204;7.202;2022-07-29T12:26:03;16.60;99.90
16627;DHT22;8427;52.204;7.202;2022-07-29T12:28:37;16.70;99.90
16627;DHT22;8427;52.204;7.202;2022-07-29T12:31:05;16.80;99.90
16627;DHT22;8427;52.204;7.202;2022-07-29T12:34:01;16.90;99.90
16627;DHT22;8427;52.204;7.202;2022-07-29T12:36:30;17.10;99.90
16627;DHT22;8427;52.204;7.202;2022-07-29T12:38:58;17.10;99.90
16627;DHT22;8427;52.204;7.202;2022-07-29T12:41:27;17.20;99.90
16627;DHT22;8427;52.204;7.202;2022-07-29T12:43:56;17.20;99.90
16627;DHT22;8427;52.204;7.202;2022-07-29T12:46:24;17.30;99.90
16627;DHT22;8427;52.204;7.202;2022-07-29T12:48:53;17.30;99.90
16627;DHT22;8427;52.204;7.202;2022-07-29T12:51:30;17.40;99.90
16627;DHT22;8427;52.204;7.202;2022-07-29T12:54:04;17.50;99.90
16627;DHT22;8427;52.204;7.202;2022-07-29T12:56:33;17.70;99.90
16627;DHT22;8427;52.204;7.202;2022-07-29T12:59:16;17.70;99.90
16627;DHT22;8427;52.204;7.202;2022-07-29T13:01:45;17.90;99.90
16627;DHT22;8427;52.204;7.202;2022-07-29T13:04:25;18.00;99.90
16627;DHT22;8427;52.204;7.202;2022-07-29T13:07:00;18.20;99.90
16627;DHT22;8427;52.204;7.202;2022-07-29T13:09:37;18.40;99.90
16627;DHT22;8427;52.204;7.202;2022-07-29T13:12:07;18.70;99.90
16627;DHT22;8427;52.204;7.202;2022-07-29T13:14:38;19.10;99.90
16627;DHT22;8427;52.204;7.202;2022-07-29T13:17:07;19.40;99.90
16627;DHT22;8427;52.204;7.202;2022-07-29T13:19:37;19.60;99.90
16627;DHT22;8427;52.204;7.202;2022-07-29T13:22:08;20.00;99.90
16627;DHT22;8427;52.204;7.202;2022-07-29T13:24:48;20.30;99.90
16627;DHT22;8427;52.204;7.202;2022-07-29T13:27:17;20.70;99.90
16627;DHT22;8427;52.204;7.202;2022-07-29T13:29:46;21.20;99.90
16627;DHT22;8427;52.204;7.202;2022-07-29T13:32:15;21.40;99.90
16627;DHT22;8427;52.204;7.202;2022-07-29T13:34:43;21.60;99.90
16627;DHT22;8427;52.204;7.202;2022-07-29T13:37:13;21.60;99.90
16627;DHT22;8427;52.204;7.202;2022-07-29T13:39:44;21.70;99.90
16627;DHT22;8427;52.204;7.202;2022-07-29T13:42:19;21.60;99.90
16627;DHT22;8427;52.204;7.202;2022-07-29T13:44:47;21.50;99.90
16627;DHT22;8427;52.204;7.202;2022-07-29T13:47:18;21.60;99.90
16627;DHT22;8427;52.204;7.202;2022-07-29T13:49:46;22.00;99.90
16627;DHT22;8427;52.204;7.202;2022-07-29T13:52:16;22.00;99.90
16627;DHT22;8427;52.204;7.202;2022-07-29T13:54:44;22.20;99.90
16627;DHT22;8427;52.204;7.202;2022-07-29T13:57:13;22.00;99.90
16627;DHT22;8427;52.204;7.202;2022-07-29T13:59:42;21.90;99.90
16627;DHT22;8427;52.204;7.202;2022-07-29T14:02:11;22.00;99.90
16627;DHT22;8427;52.204;7.202;2022-07-29T14:04:41;21.90;99.90
16627;DHT22;8427;52.204;7.202;2022-07-29T14:07:09;21.90;99.90
16627;DHT22;8427;52.204;7.202;2022-07-29T14:09:43;22.10;99.90
16627;DHT22;8427;52.204;7.202;2022-07-29T14:12:11;22.50;99.90
16627;DHT22;8427;52.204;7.202;2022-07-29T14:14:39;22.60;99.90
16627;DHT22;8427;52.204;7.202;2022-07-29T14:17:09;22.60;99.90
16627;DHT22;8427;52.204;7.202;2022-07-29T14:19:37;22.50;99.90
16627;DHT22;8427;52.204;7.202;2022-07-29T14:22:06;22.40;99.90
16627;DHT22;8427;52.204;7.202;2022-07-29T14:24:36;22.30;99.90
16627;DHT22;8427;52.204;7.202;2022-07-29T14:27:07;22.30;99.90
16627;DHT22;8427;52.204;7.202;2022-07-29T14:29:35;22.40;99.90
16627;DHT22;8427;52.204;7.202;2022-07-29T14:32:05;22.40;99.90
16627;DHT22;8427;52.204;7.202;2022-07-29T14:34:34;22.50;99.90
16627;DHT22;8427;52.204;7.202;2022-07-29T14:37:03;22.60;99.90
16627;DHT22;8427;52.204;7.202;2022-07-29T14:39:33;22.50;99.90
16627;DHT22;8427;52.204;7.202;2022-07-29T14:42:10;22.60;99.90
16627;DHT22;8427;52.204;7.202;2022-07-29T14:44:39;22.50;99.90
16627;DHT22;8427;52.204;7.202;2022-07-29T14:47:08;22.50;99.90
16627;DHT22;8427;52.204;7.202;2022-07-29T14:49:37;22.60;99.90
16627;DHT22;8427;52.204;7.202;2022-07-29T14:52:05;22.80;99.90
16627;DHT22;8427;52.204;7.202;2022-07-29T14:54:33;23.00;99.90
16627;DHT22;8427;52.204;7.202;2022-07-29T14:57:01;23.30;99.90
16627;DHT22;8427;52.204;7.202;2022-07-29T14:59:31;23.40;99.90
16627;DHT22;8427;52.204;7.202;2022-07-29T15:01:59;23.50;99.90
16627;DHT22;8427;52.204;7.202;2022-07-29T15:04:28;23.40;99.90
16627;DHT22;8427;52.204;7.202;2022-07-29T15:06:56;23.30;99.90
16627;DHT22;8427;52.204;7.202;2022-07-29T15:09:24;23.20;99.90
16627;DHT22;8427;52.204;7.202;2022-07-29T15:11:52;23.20;99.90
16627;DHT22;8427;52.204;7.202;2022-07-29T15:14:21;23.20;99.90
16627;DHT22;8427;52.204;7.202;2022-07-29T15:16:50;23.20;99.90
16627;DHT22;8427;52.204;7.202;2022-07-29T15:19:19;23.30;99.90
16627;DHT22;8427;52.204;7.202;2022-07-29T15:21:47;23.40;99.90
16627;DHT22;8427;52.204;7.202;2022-07-29T15:24:16;23.40;99.90
16627;DHT22;8427;52.204;7.202;2022-07-29T15:26:44;23.40;99.90
16627;DHT22;8427;52.204;7.202;2022-07-29T15:29:13;23.50;99.90
16627;DHT22;8427;52.204;7.202;2022-07-29T15:31:42;23.50;99.90
16627;DHT22;8427;52.204;7.202;2022-07-29T15:34:14;23.50;99.90
16627;DHT22;8427;52.204;7.202;2022-07-29T15:36:42;23.50;99.90
16627;DHT22;8427;52.204;7.202;2022-07-29T15:39:20;23.60;99.90
16627;DHT22;8427;52.204;7.202;2022-07-29T15:41:49;23.70;99.90
16627;DHT22;8427;52.204;7.202;2022-07-29T15:44:17;23.70;99.90
16627;DHT22;8427;52.204;7.202;2022-07-29T15:46:47;23.60;99.90
16627;DHT22;8427;52.204;7.202;2022-07-29T15:49:32;23.60;99.90
16627;DHT22;8427;52.204;7.202;2022-07-29T15:52:16;23.80;99.90
16627;DHT22;8427;52.204;7.202;2022-07-29T15:54:52;24.10;99.90
16627;DHT22;8427;52.204;7.202;2022-07-29T15:57:21;24.40;99.90
16627;DHT22;8427;52.204;7.202;2022-07-29T15:59:50;24.70;99.90
16627;DHT22;8427;52.204;7.202;2022-07-29T16:02:18;24.90;99.90
16627;DHT22;8427;52.204;7.202;2022-07-29T16:04:48;24.80;99.90
16627;DHT22;8427;52.204;7.202;2022-07-29T16:07:16;25.10;99.90
16627;DHT22;8427;52.204;7.202;2022-07-29T16:09:44;25.10;99.90
16627;DHT22;8427;52.204;7.202;2022-07-29T16:12:20;25.00;99.90
16627;DHT22;8427;52.204;7.202;2022-07-29T16:14:48;25.20;99.90
16627;DHT22;8427;52.204;7.202;2022-07-29T16:17:17;25.10;99.90